Time;durP1;ratioP1;P1;durP2;ratioP2;P2;SDS_P1;SDS_P2;PMS_P1;PMS_P2;Temp;Humidity;BMP_temperature;BMP_pressure;BME280_temperature;BME280_humidity;BME280_pressure;Samples;Min_cycle;Max_cycle;Signal;HPM_P1;HPM_P2
2022/05/19 00:01:33;;;;;;;15.70;7.30;;;22.60;55.20;;;;;;5044366;28;20111;-81
2022/05/19 00:03:58;;;;;;;18.35;6.82;;;22.60;55.20;;;;;;5067725;28;20536;-81
2022/05/19 00:06:24;;;;;;;17.88;7.60;;;22.60;55.10;;;;;;5052594;28;20038;-81
2022/05/19 00:08:50;;;;;;;16.50;6.93;;;22.70;55.30;;;;;;5016438;28;20030;-81
2022/05/19 00:11:20;;;;;;;12.70;6.97;;;22.60;55.20;;;;;;5030729;28;20028;-81
2022/05/19 00:13:46;;;;;;;12.15;6.55;;;22.60;55.20;;;;;;5038587;28;20052;-81
2022/05/19 00:16:12;;;;;;;14.75;7.13;;;22.70;55.30;;;;;;5020544;28;20502;-81
2022/05/19 00:18:38;;;;;;;13.40;6.55;;;22.60;55.10;;;;;;5055564;28;20036;-81
2022/05/19 00:21:05;;;;;;;11.15;6.30;;;22.70;55.30;;;;;;5012048;28;20024;-81
2022/05/19 00:23:30;;;;;;;12.98;6.63;;;22.60;55.40;;;;;;5009942;28;20045;-81
2022/05/19 00:25:56;;;;;;;15.38;6.50;;;22.60;55.30;;;;;;5035630;28;21618;-82
2022/05/19 00:28:22;;;;;;;13.25;6.60;;;22.60;55.50;;;;;;5031570;28;20484;-82
2022/05/19 00:30:48;;;;;;;10.23;6.32;;;22.60;55.60;;;;;;5021836;28;20393;-81
2022/05/19 00:33:13;;;;;;;14.45;7.22;;;22.60;55.60;;;;;;5068335;28;20024;-81
2022/05/19 00:35:40;;;;;;;11.45;6.18;;;22.60;55.90;;;;;;5052383;28;20409;-81
2022/05/19 00:38:07;;;;;;;11.07;6.32;;;22.60;55.60;;;;;;5054130;28;20028;-82
2022/05/19 00:40:32;;;;;;;13.27;6.70;;;22.60;55.80;;;;;;5033030;28;20025;-81
2022/05/19 00:42:58;;;;;;;16.52;6.28;;;22.60;55.60;;;;;;5049664;28;20493;-81
2022/05/19 00:45:33;;;;;;;11.55;5.93;;;22.60;55.90;;;;;;5025411;28;20033;-81
2022/05/19 00:48:12;;;;;;;13.02;6.40;;;22.70;55.90;;;;;;5051235;28;20018;-81
2022/05/19 00:50:52;;;;;;;11.65;6.30;;;22.60;55.80;;;;;;5035838;28;20422;-81
2022/05/19 00:53:35;;;;;;;13.57;6.97;;;22.70;56.10;;;;;;5059094;28;20024;-81
2022/05/19 00:56:32;;;;;;;12.13;6.60;;;22.60;56.00;;;;;;5053888;28;20108;-81
2022/05/19 00:59:11;;;;;;;12.20;6.53;;;22.60;56.10;;;;;;5013608;28;20037;-80
2022/05/19 01:01:43;;;;;;;11.52;6.57;;;22.70;56.20;;;;;;5054034;28;20025;-80
2022/05/19 01:04:14;;;;;;;14.27;6.60;;;22.70;56.30;;;;;;5065258;28;20306;-80
2022/05/19 01:06:43;;;;;;;12.85;5.95;;;22.70;56.30;;;;;;5053205;28;20388;-83
2022/05/19 01:09:14;;;;;;;12.17;5.93;;;22.60;56.30;;;;;;5054934;28;20028;-81
2022/05/19 01:11:41;;;;;;;11.13;5.80;;;22.60;56.40;;;;;;5033054;28;20029;-81
2022/05/19 01:14:08;;;;;;;11.73;6.55;;;22.60;56.30;;;;;;5043654;28;20021;-82
2022/05/19 01:16:35;;;;;;;10.73;5.78;;;22.70;56.30;;;;;;5050916;28;20039;-81
2022/05/19 01:19:05;;;;;;;12.23;6.07;;;22.70;56.40;;;;;;5054666;28;20115;-81
2022/05/19 01:21:32;;;;;;;;;;;22.70;56.30;;;;;;5048966;28;20501;-81
2022/05/19 01:24:19;;;;;;;13.73;6.22;;;22.60;56.50;;;;;;5052692;28;19912;-81
2022/05/19 01:26:47;;;;;;;13.43;6.13;;;22.70;56.40;;;;;;5029378;28;20029;-81
2022/05/19 01:29:17;;;;;;;11.93;6.00;;;22.70;56.50;;;;;;5058661;28;20028;-81
2022/05/19 01:31:54;;;;;;;10.35;6.00;;;22.60;56.60;;;;;;5062147;28;20052;-81
2022/05/19 01:34:23;;;;;;;11.18;5.90;;;22.70;56.60;;;;;;5051493;28;20527;-80
2022/05/19 01:36:49;;;;;;;14.23;6.25;;;22.60;56.80;;;;;;5044200;28;20088;-80
2022/05/19 01:39:21;;;;;;;9.65;5.68;;;22.60;56.70;;;;;;5051223;28;20067;-82
2022/05/19 01:42:08;;;;;;;12.05;6.13;;;22.60;56.70;;;;;;5050970;28;20436;-82
2022/05/19 01:44:37;;;;;;;12.38;5.80;;;22.60;56.70;;;;;;5052591;28;20025;-81
2022/05/19 01:47:09;;;;;;;10.85;5.65;;;22.60;56.70;;;;;;5055204;28;20024;-82
2022/05/19 01:49:57;;;;;;;9.77;5.53;;;22.70;56.80;;;;;;5067632;28;20388;-82
2022/05/19 01:52:31;;;;;;;14.52;6.05;;;22.60;56.80;;;;;;5049080;28;20070;-82
2022/05/19 01:55:09;;;;;;;11.30;5.88;;;22.70;56.80;;;;;;5034689;28;20026;-81
2022/05/19 01:57:48;;;;;;;12.45;5.88;;;22.70;56.90;;;;;;5054469;28;20036;-82
2022/05/19 02:00:21;;;;;;;14.25;5.93;;;22.70;56.90;;;;;;5044030;28;20511;-82
2022/05/19 02:03:11;;;;;;;12.10;5.90;;;22.60;56.90;;;;;;5028795;28;20331;-82
2022/05/19 02:05:53;;;;;;;10.50;5.63;;;22.60;56.70;;;;;;5049064;28;20029;-83
2022/05/19 02:08:33;;;;;;;9.68;5.57;;;22.60;56.80;;;;;;5059879;28;20496;-82
2022/05/19 02:11:05;;;;;;;9.77;5.53;;;22.70;56.80;;;;;;5048884;28;20045;-81
2022/05/19 02:13:32;;;;;;;10.45;5.38;;;22.60;56.60;;;;;;5047654;28;20501;-82
2022/05/19 02:16:03;;;;;;;11.15;5.25;;;22.70;56.90;;;;;;5046701;28;20078;-82
2022/05/19 02:18:29;;;;;;;9.63;5.68;;;22.60;56.70;;;;;;5055303;28;20032;-82
2022/05/19 02:20:58;;;;;;;10.00;5.63;;;22.70;56.80;;;;;;5050521;28;20025;-81
2022/05/19 02:23:24;;;;;;;10.50;6.23;;;22.60;56.80;;;;;;5048356;28;20021;-81
2022/05/19 02:25:52;;;;;;;12.95;5.95;;;22.60;57.00;;;;;;5065227;28;20074;-81
2022/05/19 02:28:26;;;;;;;12.13;5.70;;;22.60;57.00;;;;;;5055273;28;20021;-81
2022/05/19 02:30:54;;;;;;;11.23;5.47;;;22.60;57.00;;;;;;5029244;28;20017;-82
2022/05/19 02:33:22;;;;;;;12.18;5.50;;;22.60;56.90;;;;;;5049619;28;20103;-82
2022/05/19 02:35:48;;;;;;;10.10;5.18;;;22.60;57.00;;;;;;5059805;28;20116;-81
2022/05/19 02:38:16;;;;;;;12.57;5.53;;;22.60;57.00;;;;;;5055471;28;20385;-81
2022/05/19 02:40:42;;;;;;;9.13;5.50;;;22.60;56.90;;;;;;5024112;28;20445;-81
2022/05/19 02:43:10;;;;;;;11.70;5.50;;;22.60;56.90;;;;;;5048134;28;20074;-78
2022/05/19 02:45:36;;;;;;;12.93;5.32;;;22.60;56.70;;;;;;5057554;28;20026;-76
2022/05/19 02:48:04;;;;;;;11.65;4.47;;;22.60;56.10;;;;;;5042824;28;20032;-76
2022/05/19 02:50:30;;;;;;;10.57;3.75;;;22.40;54.30;;;;;;5044361;28;20646;-79
2022/05/19 02:52:56;;;;;;;10.25;4.22;;;22.40;53.80;;;;;;5046972;28;20021;-77
2022/05/19 02:55:22;;;;;;;7.25;3.75;;;22.30;52.70;;;;;;5060212;28;20035;-77
2022/05/19 02:57:49;;;;;;;9.57;4.32;;;22.30;51.20;;;;;;5059035;28;20017;-77
2022/05/19 03:00:19;;;;;;;8.15;4.05;;;22.20;50.70;;;;;;5023622;28;20035;-78
2022/05/19 03:02:46;;;;;;;4.57;3.13;;;22.20;50.40;;;;;;5006442;28;20030;-77
2022/05/19 03:05:16;;;;;;;9.98;3.75;;;22.20;51.30;;;;;;5041137;28;20074;-77
2022/05/19 03:07:42;;;;;;;7.47;3.47;;;22.20;51.10;;;;;;5035919;28;20103;-77
2022/05/19 03:10:09;;;;;;;9.52;3.80;;;22.30;52.20;;;;;;5036146;28;20036;-76
2022/05/19 03:12:35;;;;;;;7.75;4.03;;;22.30;51.50;;;;;;5014538;28;20033;-76
2022/05/19 03:15:03;;;;;;;8.73;3.40;;;22.30;51.60;;;;;;5063648;28;20033;-75
2022/05/19 03:17:28;;;;;;;12.73;3.65;;;22.30;51.90;;;;;;5055415;28;20029;-76
2022/05/19 03:19:56;;;;;;;11.52;4.00;;;22.30;52.00;;;;;;5054138;28;20436;-76
2022/05/19 03:22:25;;;;;;;7.80;3.58;;;22.30;52.10;;;;;;5054387;28;20025;-76
2022/05/19 03:24:51;;;;;;;5.53;3.17;;;22.30;51.80;;;;;;5041346;28;20049;-75
2022/05/19 03:27:19;;;;;;;6.45;3.20;;;22.30;51.90;;;;;;5043929;28;20064;-76
2022/05/19 03:29:46;;;;;;;5.47;3.20;;;22.40;52.00;;;;;;5033100;28;20372;-76
2022/05/19 03:32:11;;;;;;;7.53;3.50;;;22.40;51.80;;;;;;5048424;28;20032;-76
2022/05/19 03:34:37;;;;;;;6.13;3.17;;;22.40;52.20;;;;;;5058891;28;20037;-77
2022/05/19 03:37:04;;;;;;;5.53;2.75;;;22.30;52.70;;;;;;5043818;28;20023;-76
2022/05/19 03:39:30;;;;;;;6.18;2.97;;;22.40;52.10;;;;;;5053407;28;20091;-76
2022/05/19 03:41:58;;;;;;;6.82;2.90;;;22.30;52.20;;;;;;5052619;28;20040;-76
2022/05/19 03:44:25;;;;;;;8.25;3.42;;;22.40;52.70;;;;;;5059286;28;20024;-75
2022/05/19 03:46:50;;;;;;;8.52;3.20;;;22.40;52.50;;;;;;5044527;28;20503;-75
2022/05/19 03:49:16;;;;;;;7.35;3.28;;;22.40;52.60;;;;;;5028173;28;20057;-77
2022/05/19 03:51:42;;;;;;;9.13;3.30;;;22.40;52.40;;;;;;5085850;22;20044;-74
2022/05/19 03:54:09;;;;;;;6.10;3.50;;;22.40;52.60;;;;;;5075026;28;20028;-81
2022/05/19 03:56:35;;;;;;;10.07;3.75;;;22.40;52.60;;;;;;5073774;28;20024;-80
2022/05/19 03:59:01;;;;;;;8.93;3.33;;;22.40;52.00;;;;;;5080188;28;20028;-81
2022/05/19 04:01:27;;;;;;;6.55;3.45;;;22.40;52.50;;;;;;5064965;28;20062;-81
2022/05/19 04:03:53;;;;;;;7.65;3.15;;;22.50;52.10;;;;;;5054375;28;20025;-80
2022/05/19 04:06:20;;;;;;;7.35;2.78;;;22.50;51.70;;;;;;5051161;28;20024;-81
2022/05/19 04:08:48;;;;;;;5.72;2.95;;;22.50;51.90;;;;;;5065694;28;20074;-82
2022/05/19 04:11:14;;;;;;;15.07;3.17;;;22.40;52.00;;;;;;5072021;28;20024;-80
2022/05/19 04:13:40;;;;;;;5.43;3.05;;;22.50;52.20;;;;;;5055664;28;20021;-82
2022/05/19 04:16:06;;;;;;;6.32;3.13;;;22.50;52.20;;;;;;5048387;28;20032;-83
2022/05/19 04:18:32;;;;;;;7.88;3.30;;;22.50;52.40;;;;;;5048614;28;20627;-81
2022/05/19 04:20:58;;;;;;;7.93;3.28;;;22.50;52.50;;;;;;5053739;28;20064;-80
2022/05/19 04:23:24;;;;;;;6.63;3.10;;;22.50;52.70;;;;;;5060040;28;20021;-80
2022/05/19 04:25:50;;;;;;;6.35;3.03;;;22.50;52.70;;;;;;5052434;28;20100;-81
2022/05/19 04:28:16;;;;;;;7.60;2.78;;;22.50;52.60;;;;;;5058182;28;20025;-80
2022/05/19 04:30:42;;;;;;;7.78;2.83;;;22.40;53.20;;;;;;5067644;28;20030;-79
2022/05/19 04:33:11;;;;;;;4.97;2.90;;;22.50;52.70;;;;;;5054972;28;20363;-78
2022/05/19 04:35:39;;;;;;;6.00;3.03;;;22.50;52.70;;;;;;5044169;28;20034;-78
2022/05/19 04:38:07;;;;;;;6.57;2.88;;;22.50;52.90;;;;;;5050144;28;20029;-79
2022/05/19 04:40:36;;;;;;;5.55;3.00;;;22.50;52.90;;;;;;5065803;28;20052;-78
2022/05/19 04:43:03;;;;;;;7.65;3.17;;;22.50;53.10;;;;;;5068813;28;20275;-79
2022/05/19 04:45:29;;;;;;;8.15;3.30;;;22.50;52.90;;;;;;5048628;28;20536;-79
2022/05/19 04:47:55;;;;;;;8.27;3.05;;;22.50;53.20;;;;;;5066237;28;20025;-78
2022/05/19 04:50:20;;;;;;;9.73;3.50;;;22.50;53.20;;;;;;5056888;28;20120;-79
2022/05/19 04:52:46;;;;;;;6.68;2.92;;;22.50;53.40;;;;;;5059256;28;20035;-79
2022/05/19 04:55:13;;;;;;;6.00;3.00;;;22.50;54.00;;;;;;5053209;28;20381;-79
2022/05/19 04:57:42;;;;;;;7.18;3.40;;;22.50;53.50;;;;;;5062124;28;20025;-80
2022/05/19 05:00:09;;;;;;;5.13;3.20;;;22.50;53.30;;;;;;5040365;28;20033;-79
2022/05/19 05:02:35;;;;;;;8.88;3.20;;;22.50;54.00;;;;;;5060931;28;20025;-79
2022/05/19 05:05:05;;;;;;;6.53;3.20;;;22.50;54.00;;;;;;5050649;28;20025;-79
2022/05/19 05:07:31;;;;;;;11.63;3.40;;;22.60;53.50;;;;;;5055144;28;20116;-80
2022/05/19 05:09:56;;;;;;;5.57;3.05;;;22.60;54.20;;;;;;5065082;28;20103;-79
2022/05/19 05:12:22;;;;;;;6.75;2.80;;;22.60;53.90;;;;;;5049662;28;20021;-81
2022/05/19 05:14:48;;;;;;;7.00;3.30;;;22.60;53.70;;;;;;5046136;28;20485;-81
2022/05/19 05:17:14;;;;;;;8.32;3.53;;;22.50;53.80;;;;;;5035186;28;20087;-81
2022/05/19 05:19:40;;;;;;;7.13;2.92;;;22.50;54.30;;;;;;5056388;28;20098;-81
2022/05/19 05:22:06;;;;;;;4.60;2.88;;;22.50;54.00;;;;;;5069062;28;20083;-81
2022/05/19 05:24:33;;;;;;;4.97;2.70;;;22.50;54.30;;;;;;5047818;28;20025;-81
2022/05/19 05:26:59;;;;;;;7.03;3.25;;;22.50;54.30;;;;;;5051927;28;20070;-82
2022/05/19 05:29:25;;;;;;;5.80;2.90;;;22.50;54.30;;;;;;5060326;28;20444;-81
2022/05/19 05:31:50;;;;;;;6.72;3.20;;;22.60;54.40;;;;;;5057471;28;20098;-80
2022/05/19 05:34:16;;;;;;;4.93;3.00;;;22.50;54.30;;;;;;5060553;28;20027;-81
2022/05/19 05:36:42;;;;;;;4.70;2.63;;;22.50;54.40;;;;;;5050200;28;20079;-81
2022/05/19 05:39:08;;;;;;;4.70;2.83;;;22.50;54.60;;;;;;5044280;28;20397;-81
2022/05/19 05:41:34;;;;;;;7.45;3.00;;;22.50;54.70;;;;;;5048141;28;20025;-82
2022/05/19 05:43:59;;;;;;;5.80;2.97;;;22.50;54.40;;;;;;5058851;28;20033;-81
2022/05/19 05:46:25;;;;;;;4.45;2.90;;;22.50;54.40;;;;;;5048778;28;20154;-82
2022/05/19 05:48:51;;;;;;;6.35;3.08;;;22.50;54.60;;;;;;5057205;28;20025;-81
2022/05/19 05:51:18;;;;;;;5.72;3.38;;;22.50;54.90;;;;;;5027866;28;20032;-81
2022/05/19 05:53:46;;;;;;;7.32;3.20;;;22.60;55.10;;;;;;5044839;28;20025;-81
2022/05/19 05:56:15;;;;;;;7.50;2.83;;;22.50;54.90;;;;;;5050089;28;20025;-80
2022/05/19 05:58:41;;;;;;;7.60;2.95;;;22.60;55.50;;;;;;5030431;28;20489;-81
2022/05/19 06:01:11;;;;;;;5.25;2.85;;;22.60;55.00;;;;;;5043741;28;20092;-81
2022/05/19 06:03:37;;;;;;;6.15;3.08;;;22.60;55.10;;;;;;5030702;28;20030;-81
2022/05/19 06:06:04;;;;;;;5.07;3.00;;;22.50;55.40;;;;;;5027286;28;20029;-80
2022/05/19 06:08:31;;;;;;;3.92;2.47;;;22.60;55.50;;;;;;5063789;28;20362;-80
2022/05/19 06:10:57;;;;;;;5.72;2.85;;;22.50;55.20;;;;;;5063772;28;20066;-80
2022/05/19 06:13:24;;;;;;;6.07;2.95;;;22.60;55.50;;;;;;5063088;28;20426;-80
2022/05/19 06:15:49;;;;;;;5.18;2.85;;;22.60;55.20;;;;;;5050459;28;20071;-80
2022/05/19 06:18:15;;;;;;;4.47;2.80;;;22.60;55.90;;;;;;5053592;28;20025;-81
2022/05/19 06:20:44;;;;;;;5.03;2.92;;;22.60;55.30;;;;;;5050706;28;20476;-80
2022/05/19 06:23:11;;;;;;;8.77;2.90;;;22.50;55.50;;;;;;5059836;28;20016;-81
2022/05/19 06:25:38;;;;;;;5.30;3.13;;;22.50;56.00;;;;;;5047675;28;20017;-81
2022/05/19 06:28:04;;;;;;;3.97;2.75;;;22.60;55.60;;;;;;5058492;28;20535;-81
2022/05/19 06:30:31;;;;;;;6.05;3.28;;;22.60;56.00;;;;;;5060780;28;20489;-82
2022/05/19 06:32:58;;;;;;;5.82;2.83;;;22.60;56.00;;;;;;5065032;28;20388;-82
2022/05/19 06:35:27;;;;;;;5.07;2.75;;;22.60;56.20;;;;;;5016146;28;20033;-80
2022/05/19 06:37:53;;;;;;;5.93;3.22;;;22.60;55.90;;;;;;5057030;28;20476;-81
2022/05/19 06:40:20;;;;;;;6.63;3.17;;;22.60;55.90;;;;;;5052869;28;20035;-81
2022/05/19 06:42:46;;;;;;;4.97;3.00;;;22.60;56.10;;;;;;5066105;28;20062;-81
2022/05/19 06:45:16;;;;;;;6.00;3.00;;;22.60;55.90;;;;;;5044712;28;20036;-83
2022/05/19 06:47:42;;;;;;;5.03;2.95;;;22.60;56.10;;;;;;5056658;28;20509;-81
2022/05/19 06:50:11;;;;;;;4.40;2.60;;;22.60;56.00;;;;;;5055845;28;20040;-85
2022/05/19 06:52:46;;;;;;;5.63;2.90;;;22.60;56.10;;;;;;5070148;28;20024;-82
2022/05/19 06:55:13;;;;;;;6.63;2.95;;;22.60;56.70;;;;;;5046893;28;20084;-81
2022/05/19 06:57:39;;;;;;;5.38;3.28;;;22.60;56.90;;;;;;5049996;28;20127;-85
2022/05/19 07:00:07;;;;;;;4.85;2.83;;;22.60;56.80;;;;;;5046760;28;20098;-83
2022/05/19 07:02:33;;;;;;;4.60;2.72;;;22.60;56.80;;;;;;5023376;28;20397;-82
2022/05/19 07:04:59;;;;;;;10.00;3.33;;;22.60;56.90;;;;;;5037497;28;20025;-80
2022/05/19 07:07:25;;;;;;;6.13;2.83;;;22.60;57.20;;;;;;5060191;28;20039;-80
2022/05/19 07:09:54;;;;;;;9.38;3.00;;;22.60;56.90;;;;;;5048794;28;20111;-81
2022/05/19 07:12:24;;;;;;;10.23;3.00;;;22.70;56.70;;;;;;5065355;28;20027;-79
2022/05/19 07:14:50;;;;;;;8.80;3.50;;;22.70;57.10;;;;;;5056109;28;20024;-77
2022/05/19 07:17:17;;;;;;;8.98;2.90;;;22.70;57.20;;;;;;5049443;28;20027;-80
2022/05/19 07:22:31;;;;;;;13.13;3.17;;;22.70;57.40;;;;;;5062843;28;20112;-82
2022/05/19 07:24:59;;;;;;;11.15;3.03;;;22.70;57.20;;;;;;5045418;28;20075;-85
2022/05/19 07:27:25;;;;;;;13.63;3.63;;;22.70;57.30;;;;;;5032631;28;20048;-79
2022/05/19 07:29:50;;;;;;;8.35;3.30;;;22.70;57.20;;;;;;5034232;28;20029;-83
2022/05/19 07:32:16;;;;;;;10.57;3.15;;;22.70;57.10;;;;;;5033616;28;20120;-80
2022/05/19 07:34:42;;;;;;;15.95;4.30;;;22.70;57.10;;;;;;5048845;28;20489;-84
2022/05/19 07:37:07;;;;;;;39.38;6.57;;;22.80;57.40;;;;;;5033975;28;20025;-83
2022/05/19 07:39:33;;;;;;;12.38;4.65;;;22.70;57.20;;;;;;5050039;28;20499;-83
2022/05/19 07:41:59;;;;;;;10.32;5.05;;;22.70;57.30;;;;;;5050053;28;20401;-80
2022/05/19 07:44:27;;;;;;;14.35;5.70;;;22.70;57.20;;;;;;5048711;28;20494;-80
2022/05/19 07:46:54;;;;;;;28.30;6.53;;;22.70;57.10;;;;;;5049997;28;20029;-77
2022/05/19 07:49:20;;;;;;;24.92;6.32;;;22.70;57.40;;;;;;5033160;28;20040;-78
2022/05/19 07:51:45;;;;;;;25.13;5.13;;;22.80;57.70;;;;;;5050417;28;20041;-81
2022/05/19 07:54:17;;;;;;;25.40;5.75;;;22.80;57.10;;;;;;5048988;28;20107;-85
2022/05/19 07:56:44;;;;;;;17.17;6.25;;;22.70;57.40;;;;;;5048771;28;20068;-82
2022/05/19 07:59:11;;;;;;;21.13;5.80;;;22.70;57.30;;;;;;5018312;28;20061;-83
2022/05/19 08:01:38;;;;;;;13.05;4.53;;;22.70;57.50;;;;;;5070627;28;20401;-80
2022/05/19 08:04:06;;;;;;;23.85;5.30;;;22.70;57.00;;;;;;5031242;28;20163;-83
2022/05/19 08:06:33;;;;;;;22.10;4.75;;;22.70;57.00;;;;;;5052078;28;20439;-82
2022/05/19 08:08:59;;;;;;;18.90;5.18;;;22.70;56.80;;;;;;5070856;28;20031;-82
2022/05/19 08:11:26;;;;;;;16.40;4.40;;;22.70;57.40;;;;;;5038555;28;20044;-82
2022/05/19 08:16:36;;;;;;;20.58;5.05;;;22.70;57.50;;;;;;5030182;28;20040;-83
2022/05/19 08:19:03;;;;;;;10.82;4.45;;;22.70;57.50;;;;;;5037194;28;20037;-83
2022/05/19 08:21:31;;;;;;;15.60;5.40;;;22.70;57.20;;;;;;5053311;28;20032;-84
2022/05/19 08:23:58;;;;;;;18.38;4.82;;;22.70;57.40;;;;;;5052992;28;20017;-83
2022/05/19 08:26:24;;;;;;;13.82;4.53;;;22.70;57.50;;;;;;5052983;28;20025;-83
2022/05/19 08:28:51;;;;;;;15.50;5.15;;;22.70;57.70;;;;;;5069670;28;20139;-82
2022/05/19 08:31:20;;;;;;;12.27;4.80;;;22.70;57.10;;;;;;5054152;28;20433;-83
2022/05/19 08:33:48;;;;;;;17.40;4.53;;;22.70;57.00;;;;;;5035062;28;20029;-81
2022/05/19 08:36:14;;;;;;;15.13;4.15;;;22.70;57.20;;;;;;5035965;28;20048;-83
2022/05/19 08:38:41;;;;;;;17.33;4.50;;;22.70;57.30;;;;;;5020112;28;20033;-76
2022/05/19 08:41:10;;;;;;;11.77;4.82;;;22.70;58.00;;;;;;5053323;28;20059;-75
2022/05/19 08:43:44;;;;;;;14.32;4.45;;;22.80;58.00;;;;;;5052025;28;20021;-76
2022/05/19 08:46:18;;;;;;;14.38;4.85;;;22.90;57.50;;;;;;5048350;28;20029;-75
2022/05/19 08:48:45;;;;;;;16.75;5.30;;;22.90;58.60;;;;;;5053586;28;20359;-75
2022/05/19 08:51:13;;;;;;;10.30;4.67;;;23.00;59.40;;;;;;5051955;28;20075;-75
2022/05/19 08:53:42;;;;;;;14.77;5.03;;;23.10;58.30;;;;;;5050465;28;20061;-75
2022/05/19 08:56:21;;;;;;;14.30;5.00;;;23.20;58.80;;;;;;5053163;28;20056;-74
2022/05/19 08:59:04;;;;;;;12.95;4.30;;;23.20;57.70;;;;;;5033699;28;20099;-75
2022/05/19 09:01:46;;;;;;;7.90;3.63;;;23.20;56.20;;;;;;5033841;28;20025;-75
2022/05/19 09:04:21;;;;;;;9.77;3.90;;;23.20;55.30;;;;;;5041342;28;20498;-75
2022/05/19 09:10:34;;;;;;;15.13;8.73;;;23.20;54.60;;;;;;5053212;28;20070;-74
2022/05/19 09:13:36;;;;;;;17.88;6.90;;;23.20;55.10;;;;;;5051941;28;20025;-75
2022/05/19 09:16:11;;;;;;;12.75;5.20;;;23.20;55.60;;;;;;5049681;28;20417;-75
2022/05/19 09:18:39;;;;;;;15.15;5.65;;;23.30;55.30;;;;;;5052729;28;20028;-75
2022/05/19 09:21:06;;;;;;;12.32;4.78;;;23.20;54.30;;;;;;5051597;28;20029;-74
2022/05/19 09:23:35;;;;;;;8.27;4.72;;;23.20;53.60;;;;;;5033438;28;20553;-75
2022/05/19 09:26:25;;;;;;;7.40;3.87;;;23.20;53.70;;;;;;5047456;28;20021;-75
2022/05/19 09:28:56;;;;;;;13.18;4.38;;;23.20;53.40;;;;;;5039688;28;20025;-74
2022/05/19 09:31:49;;;;;;;9.82;4.15;;;23.20;54.10;;;;;;5034151;28;20402;-74
2022/05/19 09:34:15;;;;;;;9.80;3.60;;;23.30;54.30;;;;;;5050194;28;20492;-74
2022/05/19 09:37:01;;;;;;;11.30;5.10;;;23.30;54.00;;;;;;5051161;28;20430;-73
2022/05/19 09:39:34;;;;;;;7.00;3.63;;;23.30;53.80;;;;;;5050454;28;20029;-73
2022/05/19 09:42:09;;;;;;;10.68;4.05;;;23.30;53.60;;;;;;5052519;28;20032;-72
2022/05/19 09:44:40;;;;;;;9.63;4.00;;;23.30;53.40;;;;;;5050264;28;20065;-73
2022/05/19 09:47:35;;;;;;;11.13;3.90;;;23.30;53.20;;;;;;5034660;28;20024;-73
2022/05/19 09:50:07;;;;;;;7.25;3.92;;;23.30;53.00;;;;;;5066779;22;20016;-75
2022/05/19 09:52:33;;;;;;;9.93;3.72;;;23.30;53.20;;;;;;5018605;28;20033;-75
2022/05/19 09:55:08;;;;;;;7.82;3.50;;;23.30;53.00;;;;;;5056252;28;20024;-75
2022/05/19 09:57:37;;;;;;;8.82;4.20;;;23.30;53.00;;;;;;5063991;28;20020;-76
2022/05/19 10:00:31;;;;;;;8.27;4.38;;;23.30;53.10;;;;;;5026001;28;20498;-76
2022/05/19 10:02:59;;;;;;;8.27;3.88;;;23.30;52.90;;;;;;5031175;28;20426;-75
2022/05/19 10:05:42;;;;;;;7.53;3.83;;;23.30;53.60;;;;;;5031844;28;20501;-76
2022/05/19 10:08:14;;;;;;;10.90;4.25;;;23.30;53.60;;;;;;5000043;28;20072;-76
2022/05/19 10:11:07;;;;;;;8.32;3.95;;;23.30;54.00;;;;;;5053775;28;20033;-76
2022/05/19 10:13:51;;;;;;;10.48;4.05;;;23.30;54.40;;;;;;5022205;28;20044;-76
2022/05/19 10:16:50;;;;;;;10.77;4.35;;;23.30;54.10;;;;;;5071739;28;20032;-76
2022/05/19 10:19:36;;;;;;;9.15;3.75;;;23.30;53.30;;;;;;5034357;28;20465;-75
2022/05/19 10:22:29;;;;;;;10.57;4.13;;;23.30;53.90;;;;;;5024126;28;20035;-75
2022/05/19 10:25:32;;;;;;;9.05;4.03;;;23.40;53.50;;;;;;5030634;28;20112;-75
2022/05/19 10:31:44;;;;;;;8.57;4.45;;;23.40;52.90;;;;;;5055494;28;20033;-76
2022/05/19 10:34:49;;;;;;;7.55;4.22;;;23.40;52.60;;;;;;5034796;28;20059;-76
2022/05/19 10:37:36;;;;;;;13.40;4.20;;;23.40;52.30;;;;;;5062633;28;20043;-76
2022/05/19 10:40:43;;;;;;;12.93;4.18;;;23.40;52.50;;;;;;5053703;28;20047;-75
2022/05/19 10:43:18;;;;;;;8.80;4.05;;;23.40;52.70;;;;;;5063843;28;20075;-74
2022/05/19 10:45:47;;;;;;;9.13;3.78;;;23.40;52.80;;;;;;5062971;28;20032;-74
2022/05/19 10:48:56;;;;;;;9.80;3.80;;;23.40;52.70;;;;;;5036887;28;20052;-75
2022/05/19 10:51:33;;;;;;;11.18;4.10;;;23.40;52.70;;;;;;5062359;28;20036;-74
2022/05/19 10:54:32;;;;;;;7.15;3.92;;;23.40;52.30;;;;;;5050652;28;20386;-74
2022/05/19 10:57:38;;;;;;;9.45;3.72;;;23.40;52.00;;;;;;5055426;28;20025;-74
2022/05/19 11:00:07;;;;;;;11.15;3.80;;;23.40;51.70;;;;;;5013612;28;20037;-74
2022/05/19 11:02:46;;;;;;;8.00;3.80;;;23.40;51.60;;;;;;5025360;28;20470;-74
2022/05/19 11:05:34;;;;;;;7.03;3.53;;;23.40;51.40;;;;;;5031520;28;20025;-75
2022/05/19 11:08:07;;;;;;;8.82;2.90;;;23.40;51.40;;;;;;5052667;28;20021;-74
2022/05/19 11:10:50;;;;;;;9.57;3.22;;;23.40;51.20;;;;;;5050935;28;20033;-74
2022/05/19 11:13:42;;;;;;;5.80;3.00;;;23.40;51.20;;;;;;5050221;28;20396;-74
2022/05/19 11:16:36;;;;;;;7.65;3.25;;;23.50;51.10;;;;;;5056182;28;20032;-74
2022/05/19 11:19:14;;;;;;;7.32;3.50;;;23.50;50.70;;;;;;5033514;28;20040;-75
2022/05/19 11:21:45;;;;;;;9.75;3.50;;;23.50;50.50;;;;;;5053020;28;20056;-74
2022/05/19 11:24:22;;;;;;;7.53;3.53;;;23.50;50.50;;;;;;5070245;28;20020;-74
2022/05/19 11:27:10;;;;;;;6.70;3.42;;;23.50;50.50;;;;;;5064794;28;20079;-74
2022/05/19 11:30:07;;;;;;;7.63;3.53;;;23.50;50.70;;;;;;5069592;28;20431;-74
2022/05/19 11:32:36;;;;;;;5.72;3.55;;;23.50;50.90;;;;;;5036267;28;20040;-75
2022/05/19 11:35:09;;;;;;;7.95;3.90;;;23.50;50.70;;;;;;5070323;28;20021;-74
2022/05/19 11:37:50;;;;;;;8.45;4.20;;;23.50;50.60;;;;;;5064098;28;20362;-75
2022/05/19 11:40:25;;;;;;;11.50;3.88;;;23.50;50.60;;;;;;5074730;28;20028;-75
2022/05/19 11:43:10;;;;;;;9.02;3.92;;;23.50;50.50;;;;;;5074088;28;20389;-75
2022/05/19 11:45:58;;;;;;;10.15;4.03;;;23.50;50.60;;;;;;5072638;28;20149;-74
2022/05/19 11:57:09;;;;;;;6.85;3.33;;;23.40;50.70;;;;;;5070737;28;20024;-75
2022/05/19 11:59:37;;;;;;;15.05;3.80;;;23.50;50.70;;;;;;5066211;28;20058;-75
2022/05/19 12:02:06;;;;;;;9.20;3.50;;;23.50;50.70;;;;;;5074790;28;20046;-72
2022/05/19 12:04:37;;;;;;;8.45;3.63;;;23.50;51.20;;;;;;5075361;28;20035;-72
2022/05/19 12:07:11;;;;;;;11.63;3.95;;;23.50;51.00;;;;;;5072299;28;20078;-73
2022/05/19 12:09:43;;;;;;;7.97;3.22;;;23.50;51.60;;;;;;5068072;28;20496;-72
2022/05/19 12:12:23;;;;;;;9.98;4.63;;;23.50;51.20;;;;;;5075917;28;20431;-72
2022/05/19 12:15:08;;;;;;;9.70;5.72;;;23.50;50.80;;;;;;5074253;28;20036;-72
2022/05/19 12:17:43;;;;;;;12.25;6.55;;;23.50;50.60;;;;;;5052388;28;20127;-72
2022/05/19 12:20:45;;;;;;;11.57;5.38;;;23.50;50.40;;;;;;5062918;28;20079;-78
2022/05/19 12:23:28;;;;;;;8.25;4.78;;;23.60;50.50;;;;;;5034745;28;20030;-74
2022/05/19 12:25:59;;;;;;;8.50;4.57;;;23.60;50.50;;;;;;5035501;28;20490;-72
2022/05/19 12:28:46;;;;;;;8.40;4.30;;;23.60;50.50;;;;;;5048878;28;20028;-73
2022/05/19 12:34:23;;;;;;;7.00;3.92;;;23.60;50.40;;;;;;5073187;28;20117;-73
2022/05/19 12:37:07;;;;;;;7.85;3.88;;;23.60;50.40;;;;;;5072127;28;20024;-73
2022/05/19 12:40:21;;;;;;;5.53;3.40;;;23.60;50.10;;;;;;5047639;28;20036;-73
2022/05/19 12:42:48;;;;;;;9.65;3.47;;;23.60;49.90;;;;;;5011998;28;20433;-72
2022/05/19 12:45:19;;;;;;;7.18;3.47;;;23.60;49.80;;;;;;5074079;28;20024;-72
2022/05/19 12:47:59;;;;;;;11.07;3.42;;;23.60;49.90;;;;;;5068941;28;20547;-73
2022/05/19 12:50:47;;;;;;;10.50;3.38;;;23.60;49.80;;;;;;5070662;28;20397;-78
2022/05/19 12:53:25;;;;;;;7.07;3.38;;;23.60;49.80;;;;;;5066438;28;20104;-77
2022/05/19 12:55:53;;;;;;;11.80;3.67;;;23.60;49.90;;;;;;5056971;28;20028;-77
2022/05/19 12:58:41;;;;;;;15.35;3.58;;;23.60;50.30;;;;;;5055830;28;20104;-77
2022/05/19 13:01:29;;;;;;;10.75;3.30;;;23.50;50.00;;;;;;5036748;28;20087;-76
2022/05/19 13:04:18;;;;;;;10.05;4.03;;;23.50;49.90;;;;;;5055790;28;20078;-76
2022/05/19 13:06:51;;;;;;;9.70;3.88;;;23.60;49.70;;;;;;5064763;28;20036;-80
2022/05/19 13:09:25;;;;;;;10.52;3.80;;;23.60;49.40;;;;;;5073832;28;20038;-78
2022/05/19 13:11:55;;;;;;;7.53;3.78;;;23.60;49.20;;;;;;5038816;28;20024;-78
2022/05/19 13:14:38;;;;;;;7.93;3.40;;;23.60;49.40;;;;;;5032277;28;20447;-78
2022/05/19 13:17:12;;;;;;;6.57;3.38;;;23.60;49.30;;;;;;5060848;28;20111;-78
2022/05/19 13:19:40;;;;;;;7.78;3.80;;;23.60;48.90;;;;;;5055694;28;20035;-78
2022/05/19 13:22:23;;;;;;;10.98;3.88;;;23.60;48.70;;;;;;5055066;28;20480;-77
2022/05/19 13:24:49;;;;;;;9.50;3.80;;;23.70;48.80;;;;;;5058142;28;20066;-78
2022/05/19 13:30:32;;;;;;;14.77;7.47;;;23.70;48.10;;;;;;5073436;28;20031;-79
2022/05/19 13:33:18;;;;;;;15.15;8.20;;;23.60;48.00;;;;;;5053312;28;20127;-80
2022/05/19 13:35:45;;;;;;;9.75;6.05;;;23.70;47.70;;;;;;5064023;28;20014;-79